sensor_id;sensor_type;location;lat;lon;timestamp;P1;durP1;ratioP1;P2;durP2;ratioP2
9276;SDS011;4676;42.678;23.244;2024-03-02T00:01:09;5.20;;;4.40;;
9276;SDS011;4676;42.678;23.244;2024-03-02T00:03:38;8.13;;;4.67;;
9276;SDS011;4676;42.678;23.244;2024-03-02T00:06:05;17.93;;;4.00;;
9276;SDS011;4676;42.678;23.244;2024-03-02T00:08:33;5.10;;;3.73;;
9276;SDS011;4676;42.678;23.244;2024-03-02T00:11:00;8.70;;;4.77;;
9276;SDS011;4676;42.678;23.244;2024-03-02T00:13:29;7.27;;;3.80;;
9276;SDS011;4676;42.678;23.244;2024-03-02T00:15:56;6.23;;;5.43;;
9276;SDS011;4676;42.678;23.244;2024-03-02T00:18:24;6.43;;;3.47;;
9276;SDS011;4676;42.678;23.244;2024-03-02T00:20:54;3.27;;;2.97;;
9276;SDS011;4676;42.678;23.244;2024-03-02T00:23:22;9.90;;;5.03;;
9276;SDS011;4676;42.678;23.244;2024-03-02T00:25:50;5.90;;;4.40;;
9276;SDS011;4676;42.678;23.244;2024-03-02T00:28:19;4.67;;;3.03;;
9276;SDS011;4676;42.678;23.244;2024-03-02T00:30:57;7.50;;;3.07;;
9276;SDS011;4676;42.678;23.244;2024-03-02T00:33:26;4.23;;;3.37;;
9276;SDS011;4676;42.678;23.244;2024-03-02T00:35:55;4.07;;;3.77;;
9276;SDS011;4676;42.678;23.244;2024-03-02T00:38:22;7.73;;;4.87;;
9276;SDS011;4676;42.678;23.244;2024-03-02T00:40:49;3.83;;;3.63;;
9276;SDS011;4676;42.678;23.244;2024-03-02T00:43:28;6.83;;;4.43;;
9276;SDS011;4676;42.678;23.244;2024-03-02T00:46:15;3.47;;;3.10;;
9276;SDS011;4676;42.678;23.244;2024-03-02T00:48:47;7.83;;;4.30;;
9276;SDS011;4676;42.678;23.244;2024-03-02T00:51:19;12.03;;;4.67;;
9276;SDS011;4676;42.678;23.244;2024-03-02T00:53:46;5.27;;;3.33;;
9276;SDS011;4676;42.678;23.244;2024-03-02T00:56:13;5.73;;;3.90;;
9276;SDS011;4676;42.678;23.244;2024-03-02T00:58:43;3.87;;;3.30;;
9276;SDS011;4676;42.678;23.244;2024-03-02T01:01:10;10.23;;;4.20;;
9276;SDS011;4676;42.678;23.244;2024-03-02T01:03:36;8.97;;;3.67;;
9276;SDS011;4676;42.678;23.244;2024-03-02T01:06:04;5.20;;;3.93;;
9276;SDS011;4676;42.678;23.244;2024-03-02T01:08:33;22.70;;;7.20;;
9276;SDS011;4676;42.678;23.244;2024-03-02T01:11:01;8.20;;;5.73;;
9276;SDS011;4676;42.678;23.244;2024-03-02T01:13:28;6.70;;;5.07;;
9276;SDS011;4676;42.678;23.244;2024-03-02T01:15:54;9.33;;;5.13;;
9276;SDS011;4676;42.678;23.244;2024-03-02T01:18:21;5.27;;;3.80;;
9276;SDS011;4676;42.678;23.244;2024-03-02T01:20:48;11.13;;;4.70;;
9276;SDS011;4676;42.678;23.244;2024-03-02T01:23:17;5.80;;;3.50;;
9276;SDS011;4676;42.678;23.244;2024-03-02T01:25:46;4.63;;;4.17;;
9276;SDS011;4676;42.678;23.244;2024-03-02T01:28:13;7.80;;;4.70;;
9276;SDS011;4676;42.678;23.244;2024-03-02T01:30:40;12.70;;;4.50;;
9276;SDS011;4676;42.678;23.244;2024-03-02T01:33:07;4.03;;;3.80;;
9276;SDS011;4676;42.678;23.244;2024-03-02T01:35:34;9.40;;;4.63;;
9276;SDS011;4676;42.678;23.244;2024-03-02T01:38:01;14.37;;;5.73;;
9276;SDS011;4676;42.678;23.244;2024-03-02T01:40:27;9.30;;;4.97;;
9276;SDS011;4676;42.678;23.244;2024-03-02T01:42:56;9.47;;;5.83;;
9276;SDS011;4676;42.678;23.244;2024-03-02T01:45:23;8.53;;;5.30;;
9276;SDS011;4676;42.678;23.244;2024-03-02T01:47:50;6.13;;;3.47;;
9276;SDS011;4676;42.678;23.244;2024-03-02T01:50:23;6.63;;;4.80;;
9276;SDS011;4676;42.678;23.244;2024-03-02T01:52:51;6.60;;;5.57;;
9276;SDS011;4676;42.678;23.244;2024-03-02T01:55:18;7.53;;;5.07;;
9276;SDS011;4676;42.678;23.244;2024-03-02T01:57:45;5.10;;;4.53;;
9276;SDS011;4676;42.678;23.244;2024-03-02T02:00:15;8.87;;;6.20;;
9276;SDS011;4676;42.678;23.244;2024-03-02T02:02:42;5.57;;;4.57;;
9276;SDS011;4676;42.678;23.244;2024-03-02T02:05:09;5.13;;;4.63;;
9276;SDS011;4676;42.678;23.244;2024-03-02T02:07:36;7.83;;;5.47;;
9276;SDS011;4676;42.678;23.244;2024-03-02T02:10:03;5.23;;;4.80;;
9276;SDS011;4676;42.678;23.244;2024-03-02T02:12:31;4.53;;;4.30;;
9276;SDS011;4676;42.678;23.244;2024-03-02T02:14:58;11.03;;;5.77;;
9276;SDS011;4676;42.678;23.244;2024-03-02T02:17:26;4.83;;;4.43;;
9276;SDS011;4676;42.678;23.244;2024-03-02T02:19:53;4.40;;;4.10;;
9276;SDS011;4676;42.678;23.244;2024-03-02T02:22:21;5.73;;;5.13;;
9276;SDS011;4676;42.678;23.244;2024-03-02T02:24:48;4.40;;;4.00;;
9276;SDS011;4676;42.678;23.244;2024-03-02T02:27:15;7.57;;;4.27;;
9276;SDS011;4676;42.678;23.244;2024-03-02T02:29:41;6.50;;;5.60;;
9276;SDS011;4676;42.678;23.244;2024-03-02T02:32:08;6.57;;;5.57;;
9276;SDS011;4676;42.678;23.244;2024-03-02T02:34:35;4.93;;;4.37;;
9276;SDS011;4676;42.678;23.244;2024-03-02T02:37:02;15.23;;;5.13;;
9276;SDS011;4676;42.678;23.244;2024-03-02T02:39:30;7.00;;;6.30;;
9276;SDS011;4676;42.678;23.244;2024-03-02T02:41:57;5.37;;;4.87;;
9276;SDS011;4676;42.678;23.244;2024-03-02T02:44:26;15.47;;;4.77;;
9276;SDS011;4676;42.678;23.244;2024-03-02T02:46:52;7.13;;;5.13;;
9276;SDS011;4676;42.678;23.244;2024-03-02T02:49:19;5.40;;;4.90;;
9276;SDS011;4676;42.678;23.244;2024-03-02T02:51:46;3.97;;;3.67;;
9276;SDS011;4676;42.678;23.244;2024-03-02T02:54:12;5.70;;;5.27;;
9276;SDS011;4676;42.678;23.244;2024-03-02T02:56:40;12.23;;;3.87;;
9276;SDS011;4676;42.678;23.244;2024-03-02T02:59:07;10.03;;;5.43;;
9276;SDS011;4676;42.678;23.244;2024-03-02T03:01:34;11.30;;;5.13;;
9276;SDS011;4676;42.678;23.244;2024-03-02T03:04:00;7.47;;;4.93;;
9276;SDS011;4676;42.678;23.244;2024-03-02T03:06:27;7.60;;;4.53;;
9276;SDS011;4676;42.678;23.244;2024-03-02T03:08:54;9.33;;;5.63;;
9276;SDS011;4676;42.678;23.244;2024-03-02T03:11:20;5.90;;;5.33;;
9276;SDS011;4676;42.678;23.244;2024-03-02T03:13:51;12.00;;;4.90;;
9276;SDS011;4676;42.678;23.244;2024-03-02T03:16:19;5.10;;;4.53;;
9276;SDS011;4676;42.678;23.244;2024-03-02T03:18:46;7.00;;;5.43;;
9276;SDS011;4676;42.678;23.244;2024-03-02T03:21:15;10.53;;;5.90;;
9276;SDS011;4676;42.678;23.244;2024-03-02T03:23:41;9.20;;;5.40;;
9276;SDS011;4676;42.678;23.244;2024-03-02T03:26:08;7.10;;;5.83;;
9276;SDS011;4676;42.678;23.244;2024-03-02T03:28:35;8.07;;;6.47;;
9276;SDS011;4676;42.678;23.244;2024-03-02T03:31:03;11.77;;;6.30;;
9276;SDS011;4676;42.678;23.244;2024-03-02T03:33:30;6.30;;;4.27;;
9276;SDS011;4676;42.678;23.244;2024-03-02T03:35:57;4.83;;;4.27;;
9276;SDS011;4676;42.678;23.244;2024-03-02T03:38:23;7.30;;;4.90;;
9276;SDS011;4676;42.678;23.244;2024-03-02T03:40:50;4.93;;;4.53;;
9276;SDS011;4676;42.678;23.244;2024-03-02T03:43:17;9.17;;;4.80;;
9276;SDS011;4676;42.678;23.244;2024-03-02T03:45:43;4.80;;;4.50;;
9276;SDS011;4676;42.678;23.244;2024-03-02T03:48:11;13.10;;;5.23;;
9276;SDS011;4676;42.678;23.244;2024-03-02T03:50:38;6.37;;;4.73;;
9276;SDS011;4676;42.678;23.244;2024-03-02T03:53:05;7.87;;;6.30;;
9276;SDS011;4676;42.678;23.244;2024-03-02T03:55:31;5.80;;;5.20;;
9276;SDS011;4676;42.678;23.244;2024-03-02T03:57:58;8.90;;;5.57;;
9276;SDS011;4676;42.678;23.244;2024-03-02T04:00:24;5.53;;;5.07;;
9276;SDS011;4676;42.678;23.244;2024-03-02T04:02:51;14.73;;;5.97;;
9276;SDS011;4676;42.678;23.244;2024-03-02T04:05:19;9.23;;;4.93;;
9276;SDS011;4676;42.678;23.244;2024-03-02T04:07:45;11.90;;;3.87;;
9276;SDS011;4676;42.678;23.244;2024-03-02T04:10:12;10.83;;;4.87;;
9276;SDS011;4676;42.678;23.244;2024-03-02T04:12:39;14.97;;;4.93;;
9276;SDS011;4676;42.678;23.244;2024-03-02T04:15:06;6.47;;;4.20;;
9276;SDS011;4676;42.678;23.244;2024-03-02T04:17:33;8.90;;;6.90;;
9276;SDS011;4676;42.678;23.244;2024-03-02T04:20:01;4.97;;;4.57;;
9276;SDS011;4676;42.678;23.244;2024-03-02T04:22:32;5.63;;;4.93;;
9276;SDS011;4676;42.678;23.244;2024-03-02T04:24:59;7.50;;;6.93;;
9276;SDS011;4676;42.678;23.244;2024-03-02T04:27:29;8.77;;;5.90;;
9276;SDS011;4676;42.678;23.244;2024-03-02T04:29:56;12.43;;;6.27;;
9276;SDS011;4676;42.678;23.244;2024-03-02T04:32:25;14.33;;;7.63;;
9276;SDS011;4676;42.678;23.244;2024-03-02T04:34:52;9.77;;;7.40;;
9276;SDS011;4676;42.678;23.244;2024-03-02T04:37:18;12.43;;;6.33;;
9276;SDS011;4676;42.678;23.244;2024-03-02T04:39:46;16.97;;;6.10;;
9276;SDS011;4676;42.678;23.244;2024-03-02T04:42:15;11.93;;;6.67;;
9276;SDS011;4676;42.678;23.244;2024-03-02T04:44:41;13.63;;;5.50;;
9276;SDS011;4676;42.678;23.244;2024-03-02T04:47:08;14.80;;;6.27;;
9276;SDS011;4676;42.678;23.244;2024-03-02T04:49:35;8.50;;;6.20;;
9276;SDS011;4676;42.678;23.244;2024-03-02T04:52:02;12.77;;;5.67;;
9276;SDS011;4676;42.678;23.244;2024-03-02T04:54:29;25.73;;;7.27;;
9276;SDS011;4676;42.678;23.244;2024-03-02T04:56:57;7.27;;;5.90;;
9276;SDS011;4676;42.678;23.244;2024-03-02T04:59:23;9.73;;;7.13;;
9276;SDS011;4676;42.678;23.244;2024-03-02T05:01:50;7.50;;;5.80;;
9276;SDS011;4676;42.678;23.244;2024-03-02T05:04:16;20.23;;;6.20;;
9276;SDS011;4676;42.678;23.244;2024-03-02T05:06:43;10.80;;;5.50;;
9276;SDS011;4676;42.678;23.244;2024-03-02T05:09:15;5.33;;;4.80;;
9276;SDS011;4676;42.678;23.244;2024-03-02T05:11:42;10.93;;;4.13;;
9276;SDS011;4676;42.678;23.244;2024-03-02T05:14:36;15.90;;;6.73;;
9276;SDS011;4676;42.678;23.244;2024-03-02T05:17:03;4.37;;;3.63;;
9276;SDS011;4676;42.678;23.244;2024-03-02T05:19:30;7.40;;;5.73;;
9276;SDS011;4676;42.678;23.244;2024-03-02T05:21:57;9.43;;;6.13;;
9276;SDS011;4676;42.678;23.244;2024-03-02T05:24:23;10.43;;;4.90;;
9276;SDS011;4676;42.678;23.244;2024-03-02T05:26:52;13.27;;;6.40;;
9276;SDS011;4676;42.678;23.244;2024-03-02T05:29:19;20.30;;;5.80;;
9276;SDS011;4676;42.678;23.244;2024-03-02T05:31:47;17.33;;;6.77;;
9276;SDS011;4676;42.678;23.244;2024-03-02T05:34:13;14.47;;;5.40;;
9276;SDS011;4676;42.678;23.244;2024-03-02T05:36:40;17.60;;;7.20;;
9276;SDS011;4676;42.678;23.244;2024-03-02T05:39:07;11.63;;;6.70;;
9276;SDS011;4676;42.678;23.244;2024-03-02T05:41:35;14.30;;;4.83;;
9276;SDS011;4676;42.678;23.244;2024-03-02T05:44:03;5.50;;;5.00;;
9276;SDS011;4676;42.678;23.244;2024-03-02T05:46:30;4.83;;;4.43;;
9276;SDS011;4676;42.678;23.244;2024-03-02T05:48:58;11.47;;;6.83;;
9276;SDS011;4676;42.678;23.244;2024-03-02T05:51:25;10.53;;;6.50;;
9276;SDS011;4676;42.678;23.244;2024-03-02T05:53:51;7.50;;;5.20;;
9276;SDS011;4676;42.678;23.244;2024-03-02T05:56:18;8.90;;;5.10;;
9276;SDS011;4676;42.678;23.244;2024-03-02T05:58:45;14.27;;;5.73;;
9276;SDS011;4676;42.678;23.244;2024-03-02T06:01:22;7.03;;;6.43;;
9276;SDS011;4676;42.678;23.244;2024-03-02T06:03:53;9.50;;;6.63;;
9276;SDS011;4676;42.678;23.244;2024-03-02T06:06:21;6.60;;;5.47;;
9276;SDS011;4676;42.678;23.244;2024-03-02T06:08:49;12.20;;;5.83;;
9276;SDS011;4676;42.678;23.244;2024-03-02T06:11:16;13.13;;;5.77;;
9276;SDS011;4676;42.678;23.244;2024-03-02T06:13:43;15.03;;;6.13;;
9276;SDS011;4676;42.678;23.244;2024-03-02T06:16:09;10.20;;;7.13;;
9276;SDS011;4676;42.678;23.244;2024-03-02T06:18:36;9.80;;;5.63;;
9276;SDS011;4676;42.678;23.244;2024-03-02T06:21:03;11.87;;;7.37;;
9276;SDS011;4676;42.678;23.244;2024-03-02T06:23:32;13.83;;;5.47;;
9276;SDS011;4676;42.678;23.244;2024-03-02T06:25:59;11.60;;;6.37;;
9276;SDS011;4676;42.678;23.244;2024-03-02T06:28:27;9.63;;;6.87;;
9276;SDS011;4676;42.678;23.244;2024-03-02T06:30:54;19.10;;;8.30;;
9276;SDS011;4676;42.678;23.244;2024-03-02T06:33:20;12.90;;;6.90;;
9276;SDS011;4676;42.678;23.244;2024-03-02T06:35:47;23.63;;;7.07;;
9276;SDS011;4676;42.678;23.244;2024-03-02T06:38:14;25.13;;;6.77;;
9276;SDS011;4676;42.678;23.244;2024-03-02T06:40:42;7.03;;;5.53;;
9276;SDS011;4676;42.678;23.244;2024-03-02T06:43:09;13.63;;;6.77;;
9276;SDS011;4676;42.678;23.244;2024-03-02T06:45:36;5.17;;;4.87;;
9276;SDS011;4676;42.678;23.244;2024-03-02T06:48:03;10.37;;;6.23;;
9276;SDS011;4676;42.678;23.244;2024-03-02T06:50:30;12.90;;;6.03;;
9276;SDS011;4676;42.678;23.244;2024-03-02T06:52:58;13.73;;;6.67;;
9276;SDS011;4676;42.678;23.244;2024-03-02T06:55:25;16.10;;;7.37;;
9276;SDS011;4676;42.678;23.244;2024-03-02T06:57:53;12.97;;;6.23;;
9276;SDS011;4676;42.678;23.244;2024-03-02T07:00:20;6.83;;;6.20;;
9276;SDS011;4676;42.678;23.244;2024-03-02T07:02:46;10.00;;;6.77;;
9276;SDS011;4676;42.678;23.244;2024-03-02T07:05:13;7.73;;;5.77;;
9276;SDS011;4676;42.678;23.244;2024-03-02T07:07:40;7.40;;;5.93;;
9276;SDS011;4676;42.678;23.244;2024-03-02T07:10:07;12.93;;;7.13;;
9276;SDS011;4676;42.678;23.244;2024-03-02T07:12:33;8.57;;;6.93;;
9276;SDS011;4676;42.678;23.244;2024-03-02T07:15:02;14.23;;;6.93;;
9276;SDS011;4676;42.678;23.244;2024-03-02T07:17:50;9.63;;;6.57;;
9276;SDS011;4676;42.678;23.244;2024-03-02T07:20:16;13.97;;;7.03;;
9276;SDS011;4676;42.678;23.244;2024-03-02T07:22:43;9.83;;;6.97;;
9276;SDS011;4676;42.678;23.244;2024-03-02T07:25:10;7.50;;;6.67;;
9276;SDS011;4676;42.678;23.244;2024-03-02T07:27:37;15.23;;;4.93;;
9276;SDS011;4676;42.678;23.244;2024-03-02T07:30:06;15.40;;;7.40;;
9276;SDS011;4676;42.678;23.244;2024-03-02T07:32:33;9.47;;;6.27;;
9276;SDS011;4676;42.678;23.244;2024-03-02T07:34:59;9.63;;;6.40;;
9276;SDS011;4676;42.678;23.244;2024-03-02T07:37:28;14.43;;;6.80;;
9276;SDS011;4676;42.678;23.244;2024-03-02T07:39:55;8.77;;;5.57;;
9276;SDS011;4676;42.678;23.244;2024-03-02T07:42:22;11.40;;;7.70;;
9276;SDS011;4676;42.678;23.244;2024-03-02T07:44:49;5.87;;;5.00;;
9276;SDS011;4676;42.678;23.244;2024-03-02T07:47:17;12.97;;;7.70;;
9276;SDS011;4676;42.678;23.244;2024-03-02T07:49:44;13.67;;;6.00;;
9276;SDS011;4676;42.678;23.244;2024-03-02T07:52:11;18.37;;;4.40;;
9276;SDS011;4676;42.678;23.244;2024-03-02T07:54:38;9.50;;;5.20;;
9276;SDS011;4676;42.678;23.244;2024-03-02T07:57:04;5.03;;;4.20;;
9276;SDS011;4676;42.678;23.244;2024-03-02T07:59:31;5.20;;;4.70;;
9276;SDS011;4676;42.678;23.244;2024-03-02T08:01:58;22.07;;;5.23;;
9276;SDS011;4676;42.678;23.244;2024-03-02T08:04:27;7.77;;;7.03;;
9276;SDS011;4676;42.678;23.244;2024-03-02T08:06:54;5.30;;;4.80;;
9276;SDS011;4676;42.678;23.244;2024-03-02T08:09:20;12.17;;;5.50;;
9276;SDS011;4676;42.678;23.244;2024-03-02T08:11:47;6.00;;;4.73;;
9276;SDS011;4676;42.678;23.244;2024-03-02T08:14:14;5.07;;;4.50;;
9276;SDS011;4676;42.678;23.244;2024-03-02T08:16:41;4.63;;;4.20;;
9276;SDS011;4676;42.678;23.244;2024-03-02T08:19:07;7.93;;;5.17;;
9276;SDS011;4676;42.678;23.244;2024-03-02T08:21:36;5.90;;;4.43;;
9276;SDS011;4676;42.678;23.244;2024-03-02T08:24:03;10.93;;;4.27;;
9276;SDS011;4676;42.678;23.244;2024-03-02T08:26:31;9.20;;;5.23;;
9276;SDS011;4676;42.678;23.244;2024-03-02T08:28:57;7.90;;;4.40;;
9276;SDS011;4676;42.678;23.244;2024-03-02T08:31:26;11.10;;;5.20;;
9276;SDS011;4676;42.678;23.244;2024-03-02T08:33:53;13.90;;;5.87;;
9276;SDS011;4676;42.678;23.244;2024-03-02T08:36:20;6.33;;;4.87;;
9276;SDS011;4676;42.678;23.244;2024-03-02T08:38:49;8.70;;;6.33;;
9276;SDS011;4676;42.678;23.244;2024-03-02T08:41:16;5.17;;;4.57;;
9276;SDS011;4676;42.678;23.244;2024-03-02T08:43:43;6.63;;;3.90;;
9276;SDS011;4676;42.678;23.244;2024-03-02T08:46:10;13.37;;;5.80;;
9276;SDS011;4676;42.678;23.244;2024-03-02T08:48:37;5.93;;;5.40;;
9276;SDS011;4676;42.678;23.244;2024-03-02T08:51:03;12.13;;;7.03;;
9276;SDS011;4676;42.678;23.244;2024-03-02T08:53:32;11.53;;;5.87;;
9276;SDS011;4676;42.678;23.244;2024-03-02T08:56:01;15.93;;;6.80;;
9276;SDS011;4676;42.678;23.244;2024-03-02T08:58:30;17.53;;;7.40;;
9276;SDS011;4676;42.678;23.244;2024-03-02T09:00:57;16.37;;;6.70;;
9276;SDS011;4676;42.678;23.244;2024-03-02T09:03:23;9.97;;;6.77;;
9276;SDS011;4676;42.678;23.244;2024-03-02T09:05:50;11.03;;;6.10;;
9276;SDS011;4676;42.678;23.244;2024-03-02T09:08:17;9.80;;;5.80;;
9276;SDS011;4676;42.678;23.244;2024-03-02T09:10:44;11.87;;;6.63;;
9276;SDS011;4676;42.678;23.244;2024-03-02T09:13:12;22.23;;;6.07;;
9276;SDS011;4676;42.678;23.244;2024-03-02T09:15:39;6.37;;;5.77;;
9276;SDS011;4676;42.678;23.244;2024-03-02T09:18:05;12.40;;;6.53;;
9276;SDS011;4676;42.678;23.244;2024-03-02T09:20:33;13.03;;;6.00;;
9276;SDS011;4676;42.678;23.244;2024-03-02T09:22:59;14.10;;;6.87;;
9276;SDS011;4676;42.678;23.244;2024-03-02T09:25:26;14.10;;;7.83;;
9276;SDS011;4676;42.678;23.244;2024-03-02T09:27:53;12.10;;;4.97;;
9276;SDS011;4676;42.678;23.244;2024-03-02T09:30:21;14.97;;;6.30;;
9276;SDS011;4676;42.678;23.244;2024-03-02T09:32:48;7.33;;;5.47;;
9276;SDS011;4676;42.678;23.244;2024-03-02T09:35:14;8.70;;;5.13;;
9276;SDS011;4676;42.678;23.244;2024-03-02T09:37:41;8.13;;;5.97;;
9276;SDS011;4676;42.678;23.244;2024-03-02T09:40:08;11.17;;;5.40;;
9276;SDS011;4676;42.678;23.244;2024-03-02T09:42:36;8.80;;;6.93;;
9276;SDS011;4676;42.678;23.244;2024-03-02T09:45:03;8.43;;;5.17;;
9276;SDS011;4676;42.678;23.244;2024-03-02T09:47:32;7.50;;;5.30;;
9276;SDS011;4676;42.678;23.244;2024-03-02T09:49:59;8.80;;;5.07;;
9276;SDS011;4676;42.678;23.244;2024-03-02T09:52:26;8.37;;;5.67;;
9276;SDS011;4676;42.678;23.244;2024-03-02T09:54:53;12.07;;;5.80;;
9276;SDS011;4676;42.678;23.244;2024-03-02T09:57:20;7.30;;;4.50;;
9276;SDS011;4676;42.678;23.244;2024-03-02T09:59:46;6.57;;;4.13;;
9276;SDS011;4676;42.678;23.244;2024-03-02T10:02:13;8.97;;;5.07;;
9276;SDS011;4676;42.678;23.244;2024-03-02T10:04:41;7.17;;;5.97;;
9276;SDS011;4676;42.678;23.244;2024-03-02T10:07:10;11.80;;;4.97;;
9276;SDS011;4676;42.678;23.244;2024-03-02T10:09:38;12.40;;;5.40;;
9276;SDS011;4676;42.678;23.244;2024-03-02T10:12:06;5.20;;;4.70;;
9276;SDS011;4676;42.678;23.244;2024-03-02T10:14:34;10.43;;;5.10;;
9276;SDS011;4676;42.678;23.244;2024-03-02T10:17:05;9.50;;;5.30;;
9276;SDS011;4676;42.678;23.244;2024-03-02T10:19:33;11.20;;;6.53;;
9276;SDS011;4676;42.678;23.244;2024-03-02T10:22:03;8.87;;;5.20;;
9276;SDS011;4676;42.678;23.244;2024-03-02T10:24:40;7.70;;;6.50;;
9276;SDS011;4676;42.678;23.244;2024-03-02T10:27:09;7.93;;;6.60;;
9276;SDS011;4676;42.678;23.244;2024-03-02T10:29:39;8.13;;;4.93;;
9276;SDS011;4676;42.678;23.244;2024-03-02T10:32:08;8.13;;;5.73;;
9276;SDS011;4676;42.678;23.244;2024-03-02T10:34:36;10.53;;;5.90;;
9276;SDS011;4676;42.678;23.244;2024-03-02T10:37:04;11.77;;;5.27;;
9276;SDS011;4676;42.678;23.244;2024-03-02T10:39:31;12.63;;;6.20;;
9276;SDS011;4676;42.678;23.244;2024-03-02T10:42:00;21.83;;;6.37;;
9276;SDS011;4676;42.678;23.244;2024-03-02T10:44:29;8.10;;;5.87;;
9276;SDS011;4676;42.678;23.244;2024-03-02T10:46:57;10.20;;;5.47;;
9276;SDS011;4676;42.678;23.244;2024-03-02T10:49:27;11.17;;;4.90;;
9276;SDS011;4676;42.678;23.244;2024-03-02T10:51:55;11.30;;;4.97;;
9276;SDS011;4676;42.678;23.244;2024-03-02T10:54:24;6.13;;;4.47;;
9276;SDS011;4676;42.678;23.244;2024-03-02T10:56:54;8.43;;;5.17;;
9276;SDS011;4676;42.678;23.244;2024-03-02T10:59:24;11.03;;;4.97;;
9276;SDS011;4676;42.678;23.244;2024-03-02T11:01:55;11.43;;;5.83;;
9276;SDS011;4676;42.678;23.244;2024-03-02T11:04:24;6.17;;;4.30;;
9276;SDS011;4676;42.678;23.244;2024-03-02T11:06:52;12.93;;;4.20;;
9276;SDS011;4676;42.678;23.244;2024-03-02T11:09:27;7.63;;;4.33;;
9276;SDS011;4676;42.678;23.244;2024-03-02T11:11:56;15.87;;;5.50;;
9276;SDS011;4676;42.678;23.244;2024-03-02T11:14:45;11.13;;;5.87;;
9276;SDS011;4676;42.678;23.244;2024-03-02T11:17:13;7.87;;;5.30;;
9276;SDS011;4676;42.678;23.244;2024-03-02T11:19:41;9.17;;;6.60;;
9276;SDS011;4676;42.678;23.244;2024-03-02T11:22:09;9.17;;;4.37;;
9276;SDS011;4676;42.678;23.244;2024-03-02T11:24:38;8.80;;;6.00;;
9276;SDS011;4676;42.678;23.244;2024-03-02T11:27:05;12.83;;;7.40;;
9276;SDS011;4676;42.678;23.244;2024-03-02T11:29:43;11.33;;;5.83;;
9276;SDS011;4676;42.678;23.244;2024-03-02T11:32:13;19.37;;;6.67;;
9276;SDS011;4676;42.678;23.244;2024-03-02T11:34:47;8.53;;;7.07;;
9276;SDS011;4676;42.678;23.244;2024-03-02T11:37:16;14.43;;;7.27;;
9276;SDS011;4676;42.678;23.244;2024-03-02T11:39:45;14.10;;;8.37;;
9276;SDS011;4676;42.678;23.244;2024-03-02T11:42:13;9.00;;;6.77;;
9276;SDS011;4676;42.678;23.244;2024-03-02T11:44:42;12.40;;;8.07;;
9276;SDS011;4676;42.678;23.244;2024-03-02T11:47:11;11.63;;;7.53;;
9276;SDS011;4676;42.678;23.244;2024-03-02T11:49:43;18.10;;;8.03;;
9276;SDS011;4676;42.678;23.244;2024-03-02T11:52:11;8.50;;;7.40;;
9276;SDS011;4676;42.678;23.244;2024-03-02T11:54:40;16.53;;;8.13;;
9276;SDS011;4676;42.678;23.244;2024-03-02T11:57:15;15.17;;;7.23;;
9276;SDS011;4676;42.678;23.244;2024-03-02T11:59:42;14.37;;;7.23;;
9276;SDS011;4676;42.678;23.244;2024-03-02T12:02:14;11.33;;;7.17;;
9276;SDS011;4676;42.678;23.244;2024-03-02T12:04:42;11.37;;;7.63;;
9276;SDS011;4676;42.678;23.244;2024-03-02T12:07:10;16.53;;;7.83;;
9276;SDS011;4676;42.678;23.244;2024-03-02T12:09:37;25.00;;;8.47;;
9276;SDS011;4676;42.678;23.244;2024-03-02T12:12:04;5.40;;;4.97;;
9276;SDS011;4676;42.678;23.244;2024-03-02T12:14:33;9.67;;;6.37;;
9276;SDS011;4676;42.678;23.244;2024-03-02T12:17:02;14.80;;;7.43;;
9276;SDS011;4676;42.678;23.244;2024-03-02T12:19:30;13.83;;;7.63;;
9276;SDS011;4676;42.678;23.244;2024-03-02T12:21:57;14.07;;;7.97;;
9276;SDS011;4676;42.678;23.244;2024-03-02T12:24:26;9.60;;;6.33;;
9276;SDS011;4676;42.678;23.244;2024-03-02T12:26:54;16.20;;;7.87;;
9276;SDS011;4676;42.678;23.244;2024-03-02T12:29:21;9.27;;;7.37;;
9276;SDS011;4676;42.678;23.244;2024-03-02T12:31:50;10.87;;;6.40;;
9276;SDS011;4676;42.678;23.244;2024-03-02T12:34:18;19.23;;;8.90;;
9276;SDS011;4676;42.678;23.244;2024-03-02T12:36:46;24.20;;;10.17;;
9276;SDS011;4676;42.678;23.244;2024-03-02T12:39:14;25.23;;;12.13;;
9276;SDS011;4676;42.678;23.244;2024-03-02T12:41:42;13.20;;;9.23;;
9276;SDS011;4676;42.678;23.244;2024-03-02T12:44:08;22.10;;;10.83;;
9276;SDS011;4676;42.678;23.244;2024-03-02T12:46:35;15.93;;;8.87;;
9276;SDS011;4676;42.678;23.244;2024-03-02T12:49:08;9.00;;;7.03;;
9276;SDS011;4676;42.678;23.244;2024-03-02T12:51:37;6.87;;;5.87;;
9276;SDS011;4676;42.678;23.244;2024-03-02T12:54:05;7.53;;;6.60;;
9276;SDS011;4676;42.678;23.244;2024-03-02T12:56:32;13.43;;;7.30;;
9276;SDS011;4676;42.678;23.244;2024-03-02T12:58:59;14.83;;;8.33;;
9276;SDS011;4676;42.678;23.244;2024-03-02T13:01:26;17.00;;;7.77;;
9276;SDS011;4676;42.678;23.244;2024-03-02T13:03:53;9.73;;;5.90;;
9276;SDS011;4676;42.678;23.244;2024-03-02T13:06:22;8.70;;;6.17;;
9276;SDS011;4676;42.678;23.244;2024-03-02T13:08:52;10.17;;;6.67;;
9276;SDS011;4676;42.678;23.244;2024-03-02T13:11:20;8.33;;;6.83;;
9276;SDS011;4676;42.678;23.244;2024-03-02T13:13:47;9.00;;;5.17;;
9276;SDS011;4676;42.678;23.244;2024-03-02T13:16:14;11.27;;;6.90;;
9276;SDS011;4676;42.678;23.244;2024-03-02T13:18:41;11.53;;;7.27;;
9276;SDS011;4676;42.678;23.244;2024-03-02T13:21:08;10.93;;;7.37;;
9276;SDS011;4676;42.678;23.244;2024-03-02T13:23:38;9.63;;;6.33;;
9276;SDS011;4676;42.678;23.244;2024-03-02T13:26:05;7.30;;;6.20;;
9276;SDS011;4676;42.678;23.244;2024-03-02T13:28:32;14.17;;;8.27;;
9276;SDS011;4676;42.678;23.244;2024-03-02T13:30:59;10.73;;;7.13;;
9276;SDS011;4676;42.678;23.244;2024-03-02T13:33:26;8.07;;;7.00;;
9276;SDS011;4676;42.678;23.244;2024-03-02T13:35:52;11.53;;;7.33;;
9276;SDS011;4676;42.678;23.244;2024-03-02T13:38:19;15.03;;;7.43;;
9276;SDS011;4676;42.678;23.244;2024-03-02T13:40:48;9.87;;;6.30;;
9276;SDS011;4676;42.678;23.244;2024-03-02T13:43:16;9.93;;;7.53;;
9276;SDS011;4676;42.678;23.244;2024-03-02T13:45:43;9.83;;;7.97;;
9276;SDS011;4676;42.678;23.244;2024-03-02T13:48:10;11.27;;;7.10;;
9276;SDS011;4676;42.678;23.244;2024-03-02T13:50:36;13.67;;;7.20;;
9276;SDS011;4676;42.678;23.244;2024-03-02T13:53:03;12.53;;;6.67;;
9276;SDS011;4676;42.678;23.244;2024-03-02T13:55:31;8.10;;;6.27;;
9276;SDS011;4676;42.678;23.244;2024-03-02T13:57:59;9.40;;;8.13;;
9276;SDS011;4676;42.678;23.244;2024-03-02T14:00:26;14.30;;;7.03;;
9276;SDS011;4676;42.678;23.244;2024-03-02T14:02:55;13.40;;;6.97;;
9276;SDS011;4676;42.678;23.244;2024-03-02T14:05:22;15.13;;;8.37;;
9276;SDS011;4676;42.678;23.244;2024-03-02T14:07:49;7.90;;;5.27;;
9276;SDS011;4676;42.678;23.244;2024-03-02T14:10:15;13.40;;;6.60;;
9276;SDS011;4676;42.678;23.244;2024-03-02T14:12:43;9.60;;;7.03;;
9276;SDS011;4676;42.678;23.244;2024-03-02T14:15:11;18.27;;;6.20;;
9276;SDS011;4676;42.678;23.244;2024-03-02T14:17:38;8.50;;;5.90;;
9276;SDS011;4676;42.678;23.244;2024-03-02T14:20:05;11.00;;;7.90;;
9276;SDS011;4676;42.678;23.244;2024-03-02T14:22:35;9.57;;;6.60;;
9276;SDS011;4676;42.678;23.244;2024-03-02T14:25:02;13.37;;;7.83;;
9276;SDS011;4676;42.678;23.244;2024-03-02T14:27:29;13.80;;;8.07;;
9276;SDS011;4676;42.678;23.244;2024-03-02T14:29:56;11.77;;;6.80;;
9276;SDS011;4676;42.678;23.244;2024-03-02T14:32:24;15.17;;;6.97;;
9276;SDS011;4676;42.678;23.244;2024-03-02T14:34:51;7.50;;;6.73;;
9276;SDS011;4676;42.678;23.244;2024-03-02T14:37:18;12.90;;;8.03;;
9276;SDS011;4676;42.678;23.244;2024-03-02T14:39:44;12.23;;;7.20;;
9276;SDS011;4676;42.678;23.244;2024-03-02T14:42:11;11.40;;;7.73;;
9276;SDS011;4676;42.678;23.244;2024-03-02T14:44:38;15.10;;;6.73;;
9276;SDS011;4676;42.678;23.244;2024-03-02T14:47:05;11.67;;;7.43;;
9276;SDS011;4676;42.678;23.244;2024-03-02T14:49:34;10.93;;;8.30;;
9276;SDS011;4676;42.678;23.244;2024-03-02T14:52:03;11.37;;;7.10;;
9276;SDS011;4676;42.678;23.244;2024-03-02T14:54:30;9.13;;;6.97;;
9276;SDS011;4676;42.678;23.244;2024-03-02T14:56:56;8.83;;;5.90;;
9276;SDS011;4676;42.678;23.244;2024-03-02T14:59:23;10.67;;;7.60;;